Decoded Metar for KGEV (JEFFERSON in NC, USA) (IATA:GEV) | Meteo·Mobile Aviation Weather
aviador You're here:

KGEV Decoded Metar

JEFFERSON in NC, USA
Report Time2019-06-17 15:05:00
UTC Time2019-06-17 15:15:10
Flight Rules vfr VFR
Wind230° at 05 kt
W.Decomp.*RWY 28: 3.7 kt HW 3.4 kt LCW
Visibility9999 m
Phenomena:N/A
Clouds:Scattered 038 Hf
Expected CloudBase > 2,800 ft AGL from Temp-Dew spread
CeilingNone
Temp24°C (ISA +15)
Dew Point17°C (65% RH)
QNH1022 hPa
Density Alt4,911 ft
Elevation3,179 ft
Report Wrong Elevation
Raw Report
KGEV 171505Z AUTO 23005KT 10SM SCT038 24/17 A3019 RMK AO2
T02410166=

Extra information for KGEV:More info

Metar Taf Metar & Taf Last 4 Metars F.Rules Stats Wind Profile Meteogram Temp Stats Airport Information Weather charts Add Link Nearby VenuesMetar ALERT Operation Metar Decoded Social comments

AIRNAV info for KGEV